sensor_id;sensor_type;location;lat;lon;timestamp;pressure;altitude;pressure_sealevel;temperature;humidity
23253;BME280;11795;47.054;15.408;2022-07-09T00:00:00;98250;;;15.7;54.3
23253;BME280;11795;47.054;15.408;2022-07-09T00:02:00;98240;;;15.5;54.4
23253;BME280;11795;47.054;15.408;2022-07-09T00:04:00;98240;;;15.6;54.4
23253;BME280;11795;47.054;15.408;2022-07-09T00:06:02;98240;;;15.4;55.0
23253;BME280;11795;47.054;15.408;2022-07-09T00:08:00;98240;;;15.6;54.6
23253;BME280;11795;47.054;15.408;2022-07-09T00:10:00;98230;;;15.5;54.2
23253;BME280;11795;47.054;15.408;2022-07-09T00:12:00;98240;;;15.4;54.1
23253;BME280;11795;47.054;15.408;2022-07-09T00:14:00;98240;;;15.6;54.1
23253;BME280;11795;47.054;15.408;2022-07-09T00:16:00;98240;;;15.4;54.8
23253;BME280;11795;47.054;15.408;2022-07-09T00:18:00;98240;;;15.5;54.8
23253;BME280;11795;47.054;15.408;2022-07-09T00:20:03;98230;;;15.4;55.2
23253;BME280;11795;47.054;15.408;2022-07-09T00:22:00;98230;;;15.3;55.5
23253;BME280;11795;47.054;15.408;2022-07-09T00:24:00;98230;;;15.4;55.3
23253;BME280;11795;47.054;15.408;2022-07-09T00:26:00;98230;;;15.2;56.0
23253;BME280;11795;47.054;15.408;2022-07-09T00:28:00;98230;;;15.4;55.9
23253;BME280;11795;47.054;15.408;2022-07-09T00:30:00;98240;;;15.3;55.9
23253;BME280;11795;47.054;15.408;2022-07-09T00:32:00;98230;;;15.2;56.2
23253;BME280;11795;47.054;15.408;2022-07-09T00:34:00;98230;;;15.4;56.2
23253;BME280;11795;47.054;15.408;2022-07-09T00:36:00;98230;;;15.1;56.6
23253;BME280;11795;47.054;15.408;2022-07-09T00:38:00;98230;;;15.3;56.4
23253;BME280;11795;47.054;15.408;2022-07-09T00:40:00;98230;;;15.1;56.6
23253;BME280;11795;47.054;15.408;2022-07-09T00:42:01;98230;;;15.1;56.7
23253;BME280;11795;47.054;15.408;2022-07-09T00:44:00;98220;;;15.2;56.2
23253;BME280;11795;47.054;15.408;2022-07-09T00:46:00;98220;;;15.1;56.2
23253;BME280;11795;47.054;15.408;2022-07-09T00:48:00;98230;;;15.3;55.8
23253;BME280;11795;47.054;15.408;2022-07-09T00:50:01;98230;;;15.2;56.0
23253;BME280;11795;47.054;15.408;2022-07-09T00:52:00;98230;;;15.1;56.4
23253;BME280;11795;47.054;15.408;2022-07-09T00:54:01;98230;;;15.2;56.0
23253;BME280;11795;47.054;15.408;2022-07-09T00:56:01;98220;;;15.2;56.5
23253;BME280;11795;47.054;15.408;2022-07-09T00:58:00;98220;;;15.4;56.3
23253;BME280;11795;47.054;15.408;2022-07-09T01:00:00;98220;;;15.2;56.8
23253;BME280;11795;47.054;15.408;2022-07-09T01:02:00;98220;;;15.2;56.5
23253;BME280;11795;47.054;15.408;2022-07-09T01:04:00;98220;;;15.2;56.5
23253;BME280;11795;47.054;15.408;2022-07-09T01:06:00;98220;;;15.0;57.8
23253;BME280;11795;47.054;15.408;2022-07-09T01:08:00;98210;;;15.1;57.4
23253;BME280;11795;47.054;15.408;2022-07-09T01:10:00;98210;;;15.0;57.7
23253;BME280;11795;47.054;15.408;2022-07-09T01:12:01;98210;;;14.9;57.8
23253;BME280;11795;47.054;15.408;2022-07-09T01:14:00;98200;;;15.1;57.2
23253;BME280;11795;47.054;15.408;2022-07-09T01:16:00;98210;;;15.0;57.2
23253;BME280;11795;47.054;15.408;2022-07-09T01:18:00;98210;;;15.1;56.7
23253;BME280;11795;47.054;15.408;2022-07-09T01:20:00;98200;;;14.9;57.0
23253;BME280;11795;47.054;15.408;2022-07-09T01:22:01;98200;;;14.8;58.6
23253;BME280;11795;47.054;15.408;2022-07-09T01:24:00;98210;;;15.0;57.7
23253;BME280;11795;47.054;15.408;2022-07-09T01:26:00;98210;;;14.9;57.9
23253;BME280;11795;47.054;15.408;2022-07-09T01:28:00;98210;;;15.1;57.2
23253;BME280;11795;47.054;15.408;2022-07-09T01:30:00;98210;;;15.0;57.1
23253;BME280;11795;47.054;15.408;2022-07-09T01:32:00;98210;;;14.9;57.3
23253;BME280;11795;47.054;15.408;2022-07-09T01:34:00;98210;;;15.0;57.1
23253;BME280;11795;47.054;15.408;2022-07-09T01:36:00;98210;;;14.9;57.8
23253;BME280;11795;47.054;15.408;2022-07-09T01:38:00;98200;;;15.0;57.4
23253;BME280;11795;47.054;15.408;2022-07-09T01:40:00;98200;;;15.0;57.3
23253;BME280;11795;47.054;15.408;2022-07-09T01:42:00;98200;;;14.9;57.6
23253;BME280;11795;47.054;15.408;2022-07-09T01:44:00;98200;;;15.0;57.2
23253;BME280;11795;47.054;15.408;2022-07-09T01:46:00;98190;;;14.9;57.5
23253;BME280;11795;47.054;15.408;2022-07-09T01:48:00;98180;;;15.1;57.4
23253;BME280;11795;47.054;15.408;2022-07-09T01:50:00;98180;;;14.9;57.9
23253;BME280;11795;47.054;15.408;2022-07-09T01:52:00;98180;;;14.8;58.4
23253;BME280;11795;47.054;15.408;2022-07-09T01:54:00;98180;;;14.9;58.4
23253;BME280;11795;47.054;15.408;2022-07-09T01:56:04;98180;;;14.7;59.4
23253;BME280;11795;47.054;15.408;2022-07-09T01:58:00;98180;;;14.9;59.2
23253;BME280;11795;47.054;15.408;2022-07-09T02:00:00;98170;;;14.7;59.3
23253;BME280;11795;47.054;15.408;2022-07-09T02:02:01;98170;;;14.6;59.7
23253;BME280;11795;47.054;15.408;2022-07-09T02:04:00;98180;;;14.8;59.1
23253;BME280;11795;47.054;15.408;2022-07-09T02:06:00;98180;;;14.6;59.4
23253;BME280;11795;47.054;15.408;2022-07-09T02:08:00;98170;;;14.8;59.4
23253;BME280;11795;47.054;15.408;2022-07-09T02:10:00;98170;;;14.6;59.6
23253;BME280;11795;47.054;15.408;2022-07-09T02:12:00;98180;;;14.8;58.7
23253;BME280;11795;47.054;15.408;2022-07-09T02:14:00;98180;;;14.7;58.9
23253;BME280;11795;47.054;15.408;2022-07-09T02:16:01;98180;;;14.5;59.5
23253;BME280;11795;47.054;15.408;2022-07-09T02:18:00;98180;;;14.6;59.6
23253;BME280;11795;47.054;15.408;2022-07-09T02:20:00;98180;;;14.4;59.9
23253;BME280;11795;47.054;15.408;2022-07-09T02:22:00;98170;;;14.4;60.2
23253;BME280;11795;47.054;15.408;2022-07-09T02:24:00;98170;;;14.6;60.0
23253;BME280;11795;47.054;15.408;2022-07-09T02:26:00;98170;;;14.4;60.4
23253;BME280;11795;47.054;15.408;2022-07-09T02:28:00;98170;;;14.5;60.1
23253;BME280;11795;47.054;15.408;2022-07-09T02:30:00;98180;;;14.4;60.0
23253;BME280;11795;47.054;15.408;2022-07-09T02:32:00;98170;;;14.3;60.3
23253;BME280;11795;47.054;15.408;2022-07-09T02:34:00;98180;;;14.5;60.0
23253;BME280;11795;47.054;15.408;2022-07-09T02:36:00;98180;;;14.3;60.6
23253;BME280;11795;47.054;15.408;2022-07-09T02:38:00;98180;;;14.4;60.9
23253;BME280;11795;47.054;15.408;2022-07-09T02:40:00;98180;;;14.4;61.1
23253;BME280;11795;47.054;15.408;2022-07-09T02:42:00;98180;;;14.2;61.5
23253;BME280;11795;47.054;15.408;2022-07-09T02:44:00;98180;;;14.4;60.9
23253;BME280;11795;47.054;15.408;2022-07-09T02:46:01;98180;;;14.3;61.4
23253;BME280;11795;47.054;15.408;2022-07-09T02:48:00;98190;;;14.2;61.8
23253;BME280;11795;47.054;15.408;2022-07-09T02:50:00;98190;;;14.0;63.2
23253;BME280;11795;47.054;15.408;2022-07-09T02:52:01;98190;;;14.0;63.2
23253;BME280;11795;47.054;15.408;2022-07-09T02:54:00;98180;;;14.2;62.7
23253;BME280;11795;47.054;15.408;2022-07-09T02:56:00;98180;;;14.1;63.3
23253;BME280;11795;47.054;15.408;2022-07-09T02:58:00;98180;;;14.1;63.1
23253;BME280;11795;47.054;15.408;2022-07-09T03:00:00;98180;;;14.1;63.1
23253;BME280;11795;47.054;15.408;2022-07-09T03:02:01;98180;;;14.1;63.3
23253;BME280;11795;47.054;15.408;2022-07-09T03:04:01;98180;;;14.2;62.9
23253;BME280;11795;47.054;15.408;2022-07-09T03:06:00;98180;;;14.1;63.3
23253;BME280;11795;47.054;15.408;2022-07-09T03:08:00;98180;;;14.1;63.2
23253;BME280;11795;47.054;15.408;2022-07-09T03:10:00;98180;;;14.2;62.9
23253;BME280;11795;47.054;15.408;2022-07-09T03:12:00;98180;;;14.0;63.4
23253;BME280;11795;47.054;15.408;2022-07-09T03:14:00;98180;;;14.1;63.1
23253;BME280;11795;47.054;15.408;2022-07-09T03:16:00;98170;;;13.9;63.6
23253;BME280;11795;47.054;15.408;2022-07-09T03:18:00;98170;;;14.0;63.6
23253;BME280;11795;47.054;15.408;2022-07-09T03:20:00;98170;;;14.0;63.5
23253;BME280;11795;47.054;15.408;2022-07-09T03:22:00;98170;;;13.9;64.0
23253;BME280;11795;47.054;15.408;2022-07-09T03:24:00;98170;;;14.0;63.7
23253;BME280;11795;47.054;15.408;2022-07-09T03:26:00;98180;;;13.9;64.1
23253;BME280;11795;47.054;15.408;2022-07-09T03:28:00;98170;;;13.9;64.3
23253;BME280;11795;47.054;15.408;2022-07-09T03:30:00;98170;;;14.0;64.0
23253;BME280;11795;47.054;15.408;2022-07-09T03:32:00;98170;;;13.9;64.4
23253;BME280;11795;47.054;15.408;2022-07-09T03:34:00;98170;;;14.1;64.1
23253;BME280;11795;47.054;15.408;2022-07-09T03:36:00;98170;;;13.9;64.6
23253;BME280;11795;47.054;15.408;2022-07-09T03:38:00;98170;;;13.8;64.8
23253;BME280;11795;47.054;15.408;2022-07-09T03:40:00;98180;;;13.9;64.6
23253;BME280;11795;47.054;15.408;2022-07-09T03:42:00;98180;;;13.8;65.1
23253;BME280;11795;47.054;15.408;2022-07-09T03:44:00;98180;;;14.0;64.6
23253;BME280;11795;47.054;15.408;2022-07-09T03:46:00;98180;;;13.9;65.0
23253;BME280;11795;47.054;15.408;2022-07-09T03:48:00;98180;;;13.9;65.5
23253;BME280;11795;47.054;15.408;2022-07-09T03:50:01;98180;;;13.9;65.4
23253;BME280;11795;47.054;15.408;2022-07-09T03:52:00;98180;;;13.8;66.0
23253;BME280;11795;47.054;15.408;2022-07-09T03:54:00;98180;;;14.0;65.7
23253;BME280;11795;47.054;15.408;2022-07-09T03:56:00;98180;;;13.9;66.0
23253;BME280;11795;47.054;15.408;2022-07-09T03:58:00;98170;;;13.9;65.9
23253;BME280;11795;47.054;15.408;2022-07-09T04:00:00;98170;;;14.0;65.1
23253;BME280;11795;47.054;15.408;2022-07-09T04:02:00;98180;;;14.0;65.3
23253;BME280;11795;47.054;15.408;2022-07-09T04:04:00;98180;;;14.2;64.8
23253;BME280;11795;47.054;15.408;2022-07-09T04:06:00;98170;;;14.1;64.9
23253;BME280;11795;47.054;15.408;2022-07-09T04:08:00;98170;;;14.1;64.9
23253;BME280;11795;47.054;15.408;2022-07-09T04:10:00;98170;;;14.2;64.8
23253;BME280;11795;47.054;15.408;2022-07-09T04:12:00;98180;;;14.2;65.0
23253;BME280;11795;47.054;15.408;2022-07-09T04:14:01;98170;;;14.4;64.8
23253;BME280;11795;47.054;15.408;2022-07-09T04:16:00;98170;;;14.3;64.9
23253;BME280;11795;47.054;15.408;2022-07-09T04:18:00;98160;;;14.2;65.2
23253;BME280;11795;47.054;15.408;2022-07-09T04:20:00;98160;;;14.4;64.7
23253;BME280;11795;47.054;15.408;2022-07-09T04:22:02;98170;;;14.4;64.8
23253;BME280;11795;47.054;15.408;2022-07-09T04:24:00;98170;;;14.6;64.2
23253;BME280;11795;47.054;15.408;2022-07-09T04:26:00;98170;;;14.6;64.7
23253;BME280;11795;47.054;15.408;2022-07-09T04:28:00;98170;;;14.6;64.7
23253;BME280;11795;47.054;15.408;2022-07-09T04:30:00;98170;;;14.8;64.0
23253;BME280;11795;47.054;15.408;2022-07-09T04:32:00;98170;;;14.7;64.2
23253;BME280;11795;47.054;15.408;2022-07-09T04:34:00;98170;;;15.0;63.4
23253;BME280;11795;47.054;15.408;2022-07-09T04:36:00;98170;;;14.9;63.5
23253;BME280;11795;47.054;15.408;2022-07-09T04:38:00;98170;;;14.9;63.5
23253;BME280;11795;47.054;15.408;2022-07-09T04:40:00;98170;;;15.1;62.8
23253;BME280;11795;47.054;15.408;2022-07-09T04:42:00;98170;;;15.1;63.1
23253;BME280;11795;47.054;15.408;2022-07-09T04:44:00;98170;;;15.3;62.5
23253;BME280;11795;47.054;15.408;2022-07-09T04:46:00;98170;;;15.2;62.5
23253;BME280;11795;47.054;15.408;2022-07-09T04:48:00;98170;;;15.2;62.4
23253;BME280;11795;47.054;15.408;2022-07-09T04:50:00;98170;;;15.4;61.7
23253;BME280;11795;47.054;15.408;2022-07-09T04:52:00;98170;;;15.4;61.9
23253;BME280;11795;47.054;15.408;2022-07-09T04:54:00;98170;;;15.7;60.8
23253;BME280;11795;47.054;15.408;2022-07-09T04:56:00;98170;;;15.7;60.6
23253;BME280;11795;47.054;15.408;2022-07-09T04:58:00;98170;;;15.8;60.4
23253;BME280;11795;47.054;15.408;2022-07-09T05:00:00;98180;;;16.0;60.3
23253;BME280;11795;47.054;15.408;2022-07-09T05:02:00;98170;;;16.1;59.7
23253;BME280;11795;47.054;15.408;2022-07-09T05:04:00;98170;;;16.2;59.5
23253;BME280;11795;47.054;15.408;2022-07-09T05:06:00;98170;;;16.1;60.2
23253;BME280;11795;47.054;15.408;2022-07-09T05:08:00;98170;;;16.2;59.8
23253;BME280;11795;47.054;15.408;2022-07-09T05:10:02;98160;;;16.5;58.5
23253;BME280;11795;47.054;15.408;2022-07-09T05:12:00;98160;;;16.5;58.7
23253;BME280;11795;47.054;15.408;2022-07-09T05:14:00;98160;;;16.7;58.0
23253;BME280;11795;47.054;15.408;2022-07-09T05:16:00;98160;;;16.8;57.9
23253;BME280;11795;47.054;15.408;2022-07-09T05:18:00;98160;;;16.8;57.3
23253;BME280;11795;47.054;15.408;2022-07-09T05:20:00;98160;;;17.1;56.5
23253;BME280;11795;47.054;15.408;2022-07-09T05:22:01;98160;;;17.0;56.5
23253;BME280;11795;47.054;15.408;2022-07-09T05:24:01;98160;;;17.3;56.5
23253;BME280;11795;47.054;15.408;2022-07-09T05:26:00;98160;;;17.3;56.6
23253;BME280;11795;47.054;15.408;2022-07-09T05:28:00;98160;;;17.4;56.1
23253;BME280;11795;47.054;15.408;2022-07-09T05:30:00;98150;;;17.7;55.3
23253;BME280;11795;47.054;15.408;2022-07-09T05:32:00;98150;;;17.8;55.2
23253;BME280;11795;47.054;15.408;2022-07-09T05:34:00;98160;;;18.0;54.6
23253;BME280;11795;47.054;15.408;2022-07-09T05:36:00;98160;;;18.0;54.4
23253;BME280;11795;47.054;15.408;2022-07-09T05:38:00;98150;;;18.1;53.4
23253;BME280;11795;47.054;15.408;2022-07-09T05:40:06;98150;;;18.2;53.0
23253;BME280;11795;47.054;15.408;2022-07-09T05:42:00;98150;;;18.2;53.4
23253;BME280;11795;47.054;15.408;2022-07-09T05:44:03;98150;;;18.4;53.5
23253;BME280;11795;47.054;15.408;2022-07-09T05:46:00;98150;;;18.3;53.1
23253;BME280;11795;47.054;15.408;2022-07-09T05:48:00;98150;;;18.3;53.5
23253;BME280;11795;47.054;15.408;2022-07-09T05:50:00;98150;;;18.4;53.4
23253;BME280;11795;47.054;15.408;2022-07-09T05:52:00;98150;;;18.4;54.6
23253;BME280;11795;47.054;15.408;2022-07-09T05:54:00;98150;;;18.7;53.8
23253;BME280;11795;47.054;15.408;2022-07-09T05:56:00;98150;;;18.7;53.9
23253;BME280;11795;47.054;15.408;2022-07-09T05:58:00;98150;;;18.7;53.6
23253;BME280;11795;47.054;15.408;2022-07-09T06:00:00;98150;;;18.7;53.6
23253;BME280;11795;47.054;15.408;2022-07-09T06:02:03;98150;;;18.6;54.8
23253;BME280;11795;47.054;15.408;2022-07-09T06:04:00;98140;;;18.8;54.1
23253;BME280;11795;47.054;15.408;2022-07-09T06:06:00;98140;;;18.9;53.9
23253;BME280;11795;47.054;15.408;2022-07-09T06:08:00;98150;;;19.0;53.0
23253;BME280;11795;47.054;15.408;2022-07-09T06:10:00;98150;;;19.2;52.6
23253;BME280;11795;47.054;15.408;2022-07-09T06:12:00;98150;;;19.2;52.9
23253;BME280;11795;47.054;15.408;2022-07-09T06:14:00;98150;;;19.4;52.9
23253;BME280;11795;47.054;15.408;2022-07-09T06:16:00;98140;;;19.4;53.3
23253;BME280;11795;47.054;15.408;2022-07-09T06:18:00;98140;;;19.5;53.3
23253;BME280;11795;47.054;15.408;2022-07-09T06:20:00;98140;;;19.6;52.5
23253;BME280;11795;47.054;15.408;2022-07-09T06:22:00;98130;;;19.7;50.2
23253;BME280;11795;47.054;15.408;2022-07-09T06:24:00;98130;;;19.6;50.1
23253;BME280;11795;47.054;15.408;2022-07-09T06:26:00;98140;;;19.6;47.8
23253;BME280;11795;47.054;15.408;2022-07-09T06:28:00;98130;;;19.4;49.0
23253;BME280;11795;47.054;15.408;2022-07-09T06:30:00;98130;;;19.3;49.6
23253;BME280;11795;47.054;15.408;2022-07-09T06:32:01;98130;;;19.4;50.1
23253;BME280;11795;47.054;15.408;2022-07-09T06:34:00;98130;;;19.6;50.0
23253;BME280;11795;47.054;15.408;2022-07-09T06:36:00;98130;;;19.7;50.2
23253;BME280;11795;47.054;15.408;2022-07-09T06:38:01;98120;;;19.9;51.0
23253;BME280;11795;47.054;15.408;2022-07-09T06:40:00;98120;;;20.2;49.5
23253;BME280;11795;47.054;15.408;2022-07-09T06:42:04;98120;;;20.3;48.8
23253;BME280;11795;47.054;15.408;2022-07-09T06:44:00;98120;;;20.5;47.4
23253;BME280;11795;47.054;15.408;2022-07-09T06:46:00;98120;;;20.5;47.5
23253;BME280;11795;47.054;15.408;2022-07-09T06:48:00;98120;;;20.6;48.1
23253;BME280;11795;47.054;15.408;2022-07-09T06:50:00;98120;;;20.9;47.1
23253;BME280;11795;47.054;15.408;2022-07-09T06:52:00;98110;;;20.9;46.9
23253;BME280;11795;47.054;15.408;2022-07-09T06:54:00;98110;;;21.0;46.5
23253;BME280;11795;47.054;15.408;2022-07-09T06:56:00;98110;;;21.0;46.8
23253;BME280;11795;47.054;15.408;2022-07-09T06:58:00;98110;;;21.1;47.2
23253;BME280;11795;47.054;15.408;2022-07-09T07:00:00;98110;;;21.4;47.2
23253;BME280;11795;47.054;15.408;2022-07-09T07:02:00;98110;;;21.4;46.0
23253;BME280;11795;47.054;15.408;2022-07-09T07:04:00;98110;;;21.7;45.9
23253;BME280;11795;47.054;15.408;2022-07-09T07:06:00;98110;;;21.8;43.8
23253;BME280;11795;47.054;15.408;2022-07-09T07:08:00;98110;;;21.7;44.3
23253;BME280;11795;47.054;15.408;2022-07-09T07:10:00;98110;;;21.9;45.4
23253;BME280;11795;47.054;15.408;2022-07-09T07:12:01;98110;;;22.0;44.9
23253;BME280;11795;47.054;15.408;2022-07-09T07:14:00;98110;;;22.2;44.1
23253;BME280;11795;47.054;15.408;2022-07-09T07:16:00;98110;;;22.3;44.2
23253;BME280;11795;47.054;15.408;2022-07-09T07:18:00;98100;;;22.3;42.7
23253;BME280;11795;47.054;15.408;2022-07-09T07:20:00;98110;;;22.5;43.2
23253;BME280;11795;47.054;15.408;2022-07-09T07:22:00;98100;;;22.5;45.0
23253;BME280;11795;47.054;15.408;2022-07-09T07:24:00;98090;;;22.7;44.4
23253;BME280;11795;47.054;15.408;2022-07-09T07:26:00;98100;;;22.7;43.9
23253;BME280;11795;47.054;15.408;2022-07-09T07:28:01;98100;;;22.8;43.7
23253;BME280;11795;47.054;15.408;2022-07-09T07:30:00;98100;;;23.1;43.3
23253;BME280;11795;47.054;15.408;2022-07-09T07:32:00;98090;;;23.1;41.5
23253;BME280;11795;47.054;15.408;2022-07-09T07:34:00;98090;;;23.3;42.2
23253;BME280;11795;47.054;15.408;2022-07-09T07:36:00;98090;;;23.4;42.3
23253;BME280;11795;47.054;15.408;2022-07-09T07:38:00;98100;;;23.5;41.6
23253;BME280;11795;47.054;15.408;2022-07-09T07:40:00;98090;;;23.5;40.3
23253;BME280;11795;47.054;15.408;2022-07-09T07:42:00;98090;;;23.5;40.5
23253;BME280;11795;47.054;15.408;2022-07-09T07:44:00;98090;;;23.6;39.8
23253;BME280;11795;47.054;15.408;2022-07-09T07:46:00;98090;;;23.6;40.8
23253;BME280;11795;47.054;15.408;2022-07-09T07:48:00;98080;;;23.6;40.2
23253;BME280;11795;47.054;15.408;2022-07-09T07:50:00;98090;;;23.6;38.4
23253;BME280;11795;47.054;15.408;2022-07-09T07:52:00;98090;;;23.5;40.4
23253;BME280;11795;47.054;15.408;2022-07-09T07:54:00;98080;;;23.7;41.0
23253;BME280;11795;47.054;15.408;2022-07-09T07:56:01;98080;;;23.9;38.9
23253;BME280;11795;47.054;15.408;2022-07-09T07:58:00;98080;;;23.9;38.6
23253;BME280;11795;47.054;15.408;2022-07-09T08:00:00;98080;;;24.0;39.4
23253;BME280;11795;47.054;15.408;2022-07-09T08:02:00;98080;;;24.1;40.3
23253;BME280;11795;47.054;15.408;2022-07-09T08:04:00;98080;;;24.2;39.5
23253;BME280;11795;47.054;15.408;2022-07-09T08:06:00;98080;;;24.2;38.0
23253;BME280;11795;47.054;15.408;2022-07-09T08:08:00;98080;;;24.2;38.4
23253;BME280;11795;47.054;15.408;2022-07-09T08:10:00;98080;;;24.5;39.0
23253;BME280;11795;47.054;15.408;2022-07-09T08:12:00;98080;;;24.4;38.1
23253;BME280;11795;47.054;15.408;2022-07-09T08:14:00;98080;;;24.5;38.1
23253;BME280;11795;47.054;15.408;2022-07-09T08:16:01;98090;;;24.6;37.9
23253;BME280;11795;47.054;15.408;2022-07-09T08:18:00;98080;;;24.7;38.6
23253;BME280;11795;47.054;15.408;2022-07-09T08:20:00;98080;;;25.0;37.7
23253;BME280;11795;47.054;15.408;2022-07-09T08:22:00;98070;;;25.1;38.0
23253;BME280;11795;47.054;15.408;2022-07-09T08:24:04;98070;;;25.3;37.6
23253;BME280;11795;47.054;15.408;2022-07-09T08:26:00;98070;;;25.3;35.5
23253;BME280;11795;47.054;15.408;2022-07-09T08:28:00;98060;;;25.2;36.5
23253;BME280;11795;47.054;15.408;2022-07-09T08:30:00;98060;;;25.4;36.4
23253;BME280;11795;47.054;15.408;2022-07-09T08:32:00;98070;;;25.3;35.6
23253;BME280;11795;47.054;15.408;2022-07-09T08:34:00;98070;;;25.4;37.2
23253;BME280;11795;47.054;15.408;2022-07-09T08:36:00;98060;;;25.4;36.3
23253;BME280;11795;47.054;15.408;2022-07-09T08:38:00;98060;;;25.5;36.9
23253;BME280;11795;47.054;15.408;2022-07-09T08:40:00;98070;;;25.8;35.4
23253;BME280;11795;47.054;15.408;2022-07-09T08:42:01;98060;;;25.8;34.5
23253;BME280;11795;47.054;15.408;2022-07-09T08:44:02;98060;;;25.8;34.6
23253;BME280;11795;47.054;15.408;2022-07-09T08:46:00;98060;;;26.0;36.2
23253;BME280;11795;47.054;15.408;2022-07-09T08:48:00;98050;;;26.0;34.9
23253;BME280;11795;47.054;15.408;2022-07-09T08:50:01;98050;;;26.2;35.4
23253;BME280;11795;47.054;15.408;2022-07-09T08:52:02;98050;;;26.1;35.0
23253;BME280;11795;47.054;15.408;2022-07-09T08:54:00;98050;;;26.1;35.1
23253;BME280;11795;47.054;15.408;2022-07-09T08:56:00;98050;;;26.2;34.4
23253;BME280;11795;47.054;15.408;2022-07-09T08:58:00;98050;;;26.1;33.7
23253;BME280;11795;47.054;15.408;2022-07-09T09:00:00;98060;;;26.3;34.6
23253;BME280;11795;47.054;15.408;2022-07-09T09:02:03;98050;;;26.2;33.8
23253;BME280;11795;47.054;15.408;2022-07-09T09:04:01;98060;;;26.3;34.2
23253;BME280;11795;47.054;15.408;2022-07-09T09:06:03;98060;;;26.5;34.5
23253;BME280;11795;47.054;15.408;2022-07-09T09:08:00;98050;;;26.5;34.4
23253;BME280;11795;47.054;15.408;2022-07-09T09:10:00;98050;;;26.5;33.1
23253;BME280;11795;47.054;15.408;2022-07-09T09:12:00;98050;;;26.2;34.1
23253;BME280;11795;47.054;15.408;2022-07-09T09:14:00;98040;;;25.9;33.9
23253;BME280;11795;47.054;15.408;2022-07-09T09:16:03;98040;;;25.8;33.6
23253;BME280;11795;47.054;15.408;2022-07-09T09:18:02;98050;;;25.5;35.1
23253;BME280;11795;47.054;15.408;2022-07-09T09:20:11;98040;;;25.6;35.2
23253;BME280;11795;47.054;15.408;2022-07-09T09:22:00;98040;;;25.4;34.2
23253;BME280;11795;47.054;15.408;2022-07-09T09:24:03;98040;;;25.3;34.8
23253;BME280;11795;47.054;15.408;2022-07-09T09:26:07;98040;;;25.5;35.2
23253;BME280;11795;47.054;15.408;2022-07-09T09:28:00;98030;;;25.6;34.9
23253;BME280;11795;47.054;15.408;2022-07-09T09:30:00;98030;;;26.1;34.7
23253;BME280;11795;47.054;15.408;2022-07-09T09:32:08;98020;;;25.9;33.3
23253;BME280;11795;47.054;15.408;2022-07-09T09:34:10;98030;;;26.0;34.8
23253;BME280;11795;47.054;15.408;2022-07-09T09:36:00;98030;;;26.1;33.3
23253;BME280;11795;47.054;15.408;2022-07-09T09:38:00;98030;;;26.2;33.1
23253;BME280;11795;47.054;15.408;2022-07-09T09:40:08;98020;;;26.2;33.7
23253;BME280;11795;47.054;15.408;2022-07-09T09:42:01;98020;;;26.0;34.6
23253;BME280;11795;47.054;15.408;2022-07-09T09:44:02;98020;;;26.2;34.8
23253;BME280;11795;47.054;15.408;2022-07-09T09:46:02;98020;;;26.5;33.7
23253;BME280;11795;47.054;15.408;2022-07-09T09:48:00;98020;;;26.5;33.4
23253;BME280;11795;47.054;15.408;2022-07-09T09:50:00;98020;;;26.8;34.0
23253;BME280;11795;47.054;15.408;2022-07-09T09:52:03;98020;;;27.0;34.4
23253;BME280;11795;47.054;15.408;2022-07-09T09:54:01;98010;;;27.0;33.5
23253;BME280;11795;47.054;15.408;2022-07-09T09:56:00;98010;;;27.3;33.0
23253;BME280;11795;47.054;15.408;2022-07-09T09:58:00;98020;;;27.3;32.6
23253;BME280;11795;47.054;15.408;2022-07-09T10:00:00;98010;;;27.4;32.6
23253;BME280;11795;47.054;15.408;2022-07-09T10:02:01;98010;;;27.3;32.8
23253;BME280;11795;47.054;15.408;2022-07-09T10:04:00;98010;;;27.4;33.9
23253;BME280;11795;47.054;15.408;2022-07-09T10:06:00;98000;;;27.4;32.3
23253;BME280;11795;47.054;15.408;2022-07-09T10:08:00;98010;;;27.4;32.8
23253;BME280;11795;47.054;15.408;2022-07-09T10:10:00;98010;;;27.4;32.1
23253;BME280;11795;47.054;15.408;2022-07-09T10:12:00;98010;;;27.2;31.7
23253;BME280;11795;47.054;15.408;2022-07-09T10:14:00;98010;;;27.1;32.3
23253;BME280;11795;47.054;15.408;2022-07-09T10:16:00;98010;;;27.1;32.3
23253;BME280;11795;47.054;15.408;2022-07-09T10:18:09;98010;;;26.9;31.9
23253;BME280;11795;47.054;15.408;2022-07-09T10:20:03;98010;;;27.1;32.3
23253;BME280;11795;47.054;15.408;2022-07-09T10:22:00;98000;;;27.0;30.7
23253;BME280;11795;47.054;15.408;2022-07-09T10:24:00;98000;;;26.9;31.0
23253;BME280;11795;47.054;15.408;2022-07-09T10:26:00;98000;;;26.9;30.3
23253;BME280;11795;47.054;15.408;2022-07-09T10:28:00;97980;;;26.5;30.3
23253;BME280;11795;47.054;15.408;2022-07-09T10:30:02;98000;;;26.2;31.5
23253;BME280;11795;47.054;15.408;2022-07-09T10:32:02;98000;;;26.3;31.8
23253;BME280;11795;47.054;15.408;2022-07-09T10:34:06;98000;;;26.4;32.2
23253;BME280;11795;47.054;15.408;2022-07-09T10:36:09;98000;;;26.8;32.2
23253;BME280;11795;47.054;15.408;2022-07-09T10:38:00;97990;;;26.9;32.1
23253;BME280;11795;47.054;15.408;2022-07-09T10:40:10;98000;;;27.0;32.3
23253;BME280;11795;47.054;15.408;2022-07-09T10:42:02;97990;;;26.9;31.6
23253;BME280;11795;47.054;15.408;2022-07-09T10:44:00;97980;;;26.9;29.9
23253;BME280;11795;47.054;15.408;2022-07-09T10:46:09;97990;;;26.8;30.6
23253;BME280;11795;47.054;15.408;2022-07-09T10:48:01;97990;;;26.7;29.8
23253;BME280;11795;47.054;15.408;2022-07-09T10:50:02;97990;;;26.6;31.2
23253;BME280;11795;47.054;15.408;2022-07-09T10:52:00;97990;;;26.9;31.6
23253;BME280;11795;47.054;15.408;2022-07-09T10:54:00;97990;;;26.9;30.3
23253;BME280;11795;47.054;15.408;2022-07-09T10:56:00;97990;;;27.0;31.1
23253;BME280;11795;47.054;15.408;2022-07-09T10:58:02;97990;;;27.1;31.6
23253;BME280;11795;47.054;15.408;2022-07-09T11:00:00;97990;;;27.2;31.7
23253;BME280;11795;47.054;15.408;2022-07-09T11:02:00;97990;;;27.2;30.7
23253;BME280;11795;47.054;15.408;2022-07-09T11:04:00;97990;;;27.3;31.1
23253;BME280;11795;47.054;15.408;2022-07-09T11:06:01;97980;;;27.3;29.9
23253;BME280;11795;47.054;15.408;2022-07-09T11:08:02;97980;;;27.3;30.3
23253;BME280;11795;47.054;15.408;2022-07-09T11:10:00;97990;;;27.1;31.8